Time;durP1;ratioP1;P1;durP2;ratioP2;P2;SDS_P1;SDS_P2;PMS_P1;PMS_P2;Temp;Humidity;BMP_temperature;BMP_pressure;BME280_temperature;BME280_humidity;BME280_pressure;Samples;Min_cycle;Max_cycle;Signal;HPM_P1;HPM_P2
2024/03/15 00:00:47;;;;;;;2.05;1.95;;;;;;;-146.26;100.00;59860.63;5079024;28;20102;-73
2024/03/15 00:03:14;;;;;;;0.43;0.43;;;;;;;-146.26;100.00;59860.63;5079852;28;20075;-73
2024/03/15 00:05:39;;;;;;;4.70;4.47;;;;;;;-146.26;100.00;59860.63;5079139;28;20086;-72
2024/03/15 00:08:06;;;;;;;0.20;0.20;;;;;;;-146.26;100.00;59860.63;5069923;28;20460;-73
2024/03/15 00:10:32;;;;;;;1.15;1.15;;;;;;;-146.26;100.00;59860.63;5068073;28;20036;-73
2024/03/15 00:13:03;;;;;;;5.15;4.70;;;;;;;-146.26;100.00;59860.63;5082493;28;20564;-74
2024/03/15 00:15:29;;;;;;;1.23;1.15;;;;;;;-146.26;100.00;59860.63;5075293;28;20636;-73
2024/03/15 00:17:55;;;;;;;1.48;1.45;;;;;;;-146.26;100.00;59860.63;5078611;28;20066;-73
2024/03/15 00:20:20;;;;;;;1.08;1.08;;;;;;;-146.26;100.00;59860.63;5071938;28;20059;-74
2024/03/15 00:22:46;;;;;;;1.48;1.48;;;;;;;-146.26;100.00;59860.63;5089748;28;20039;-73
2024/03/15 00:25:13;;;;;;;0.35;0.35;;;;;;;-146.26;100.00;59860.63;5080751;28;20039;-73
2024/03/15 00:27:39;;;;;;;1.83;1.73;;;;;;;-146.26;100.00;59860.63;5074853;28;20715;-74
2024/03/15 00:30:08;;;;;;;4.50;4.07;;;;;;;-146.26;100.00;59860.63;5072798;28;20044;-73
2024/03/15 00:32:33;;;;;;;1.85;1.75;;;;;;;-146.26;100.00;59860.63;5057179;28;20395;-72
2024/03/15 00:34:59;;;;;;;2.92;2.83;;;;;;;-146.26;100.00;59860.63;5079092;28;20047;-73
2024/03/15 00:37:25;;;;;;;0.65;0.65;;;;;;;-146.26;100.00;59860.63;5081039;28;20024;-73
2024/03/15 00:39:50;;;;;;;4.43;4.13;;;;;;;-146.26;100.00;59860.63;5076379;28;20548;-73
2024/03/15 00:42:16;;;;;;;2.40;2.30;;;;;;;-146.26;100.00;59860.63;5070824;28;20119;-75
2024/03/15 00:44:41;;;;;;;0.98;0.93;;;;;;;-146.26;100.00;59860.63;5067131;28;20048;-73
2024/03/15 00:47:07;;;;;;;2.25;1.60;;;;;;;-146.26;100.00;59860.63;5073804;28;20770;-73
2024/03/15 00:49:34;;;;;;;4.63;4.25;;;;;;;-146.26;100.00;59860.63;5088943;28;20036;-74
2024/03/15 00:52:00;;;;;;;0.30;0.30;;;;;;;-146.26;100.00;59860.63;5071259;28;20053;-73
2024/03/15 00:54:27;;;;;;;0.32;0.32;;;;;;;-146.26;100.00;59860.63;5060205;28;20044;-73
2024/03/15 00:56:53;;;;;;;0.50;0.50;;;;;;;-146.26;100.00;59860.63;5064242;28;20095;-74
2024/03/15 00:59:20;;;;;;;1.75;1.65;;;;;;;-146.26;100.00;59860.63;5077254;28;20071;-73
2024/03/15 01:01:45;;;;;;;1.50;1.40;;;;;;;-146.26;100.00;59860.63;5074180;28;20033;-75
2024/03/15 01:04:13;;;;;;;0.90;0.90;;;;;;;-146.26;100.00;59860.63;5082611;28;20029;-76
2024/03/15 01:06:39;;;;;;;3.70;2.08;;;;;;;-146.26;100.00;59860.63;5071082;28;20048;-75
2024/03/15 01:09:04;;;;;;;3.55;3.30;;;;;;;-146.26;100.00;59860.63;5061846;28;20098;-73
2024/03/15 01:11:30;;;;;;;0.80;0.80;;;;;;;-146.26;100.00;59860.63;5059210;28;20511;-73
2024/03/15 01:13:57;;;;;;;0.40;0.40;;;;;;;-146.26;100.00;59860.63;5060980;28;20059;-76
2024/03/15 01:16:24;;;;;;;0.75;0.75;;;;;;;-146.26;100.00;59860.63;5058344;28;20028;-74
2024/03/15 01:18:50;;;;;;;0.25;0.25;;;;;;;-146.26;100.00;59860.63;5056036;28;20056;-75
2024/03/15 01:21:16;;;;;;;14.25;13.35;;;;;;;-146.26;100.00;59860.63;5061530;28;20185;-74
2024/03/15 01:23:41;;;;;;;0.75;0.75;;;;;;;-146.26;100.00;59860.63;5054014;28;20558;-76
2024/03/15 01:26:07;;;;;;;2.88;2.72;;;;;;;-146.26;100.00;59860.63;5064771;28;20079;-75
2024/03/15 01:28:32;;;;;;;1.30;1.20;;;;;;;-146.26;100.00;59860.63;5058131;28;20115;-75
2024/03/15 01:30:59;;;;;;;11.43;8.77;;;;;;;-146.26;100.00;59860.63;5048890;28;20060;-74
2024/03/15 01:33:26;;;;;;;5.45;4.97;;;;;;;-146.26;100.00;59860.63;5054623;28;20274;-73
2024/03/15 01:35:51;;;;;;;9.48;4.63;;;;;;;-146.26;100.00;59860.63;5061016;28;20045;-75
2024/03/15 01:38:18;;;;;;;1.48;1.38;;;;;;;-146.26;100.00;59860.63;5065536;28;20095;-74
2024/03/15 01:40:43;;;;;;;8.38;7.72;;;;;;;-146.26;100.00;59860.63;5063053;28;20058;-74
2024/03/15 01:43:12;;;;;;;7.15;4.82;;;;;;;-146.26;100.00;59860.63;5060817;28;20126;-73
2024/03/15 01:45:39;;;;;;;2.47;2.38;;;;;;;-146.26;100.00;59860.63;5051098;28;20075;-75
2024/03/15 01:48:07;;;;;;;0.68;0.63;;;;;;;-146.26;100.00;59860.63;5060366;28;20057;-75
2024/03/15 01:50:34;;;;;;;1.67;1.58;;;;;;;-146.26;100.00;59860.63;5060545;28;20443;-74
2024/03/15 01:53:02;;;;;;;0.60;0.52;;;;;;;-146.26;100.00;59860.63;5060968;28;20056;-73
2024/03/15 01:55:28;;;;;;;1.00;0.95;;;;;;;-146.26;100.00;59860.63;5066734;28;20035;-73
2024/03/15 01:57:54;;;;;;;0.30;0.30;;;;;;;-146.26;100.00;59860.63;5065634;28;20041;-73
2024/03/15 02:00:20;;;;;;;17.23;16.05;;;;;;;-146.26;100.00;59860.63;5075391;28;20071;-74
2024/03/15 02:02:48;;;;;;;2.75;2.65;;;;;;;-146.26;100.00;59860.63;5078915;28;20519;-75
2024/03/15 02:05:15;;;;;;;0.85;0.85;;;;;;;-146.26;100.00;59860.63;5075720;28;20500;-73
2024/03/15 02:07:41;;;;;;;1.90;1.75;;;;;;;-146.26;100.00;59860.63;5087083;28;20040;-75
2024/03/15 02:10:15;;;;;;;1.02;0.95;;;;;;;-146.26;100.00;59860.63;5049826;28;20056;-73
2024/03/15 02:12:41;;;;;;;0.88;0.88;;;;;;;-146.26;100.00;59860.63;5084674;28;20127;-74
2024/03/15 02:15:07;;;;;;;0.82;0.82;;;;;;;-146.26;100.00;59860.63;5086706;28;20044;-74
2024/03/15 02:17:36;;;;;;;0.40;0.40;;;;;;;-146.26;100.00;59860.63;5078462;28;20048;-73
2024/03/15 02:20:02;;;;;;;3.38;3.25;;;;;;;-146.26;100.00;59860.63;5077828;28;20028;-76
2024/03/15 02:22:28;;;;;;;2.63;0.60;;;;;;;-146.26;100.00;59860.63;5069131;28;20049;-74
2024/03/15 02:24:53;;;;;;;0.40;0.40;;;;;;;-146.26;100.00;59860.63;5081351;28;20056;-74
2024/03/15 02:27:20;;;;;;;0.63;0.63;;;;;;;-146.26;100.00;59860.63;5072187;28;20479;-76
2024/03/15 02:29:45;;;;;;;1.83;1.73;;;;;;;-146.26;100.00;59860.63;5075697;28;20063;-74
2024/03/15 02:32:11;;;;;;;2.42;2.33;;;;;;;-146.26;100.00;59860.63;5052974;28;20059;-75
2024/03/15 02:34:37;;;;;;;0.40;0.40;;;;;;;-146.26;100.00;59860.63;5056159;28;20040;-76
2024/03/15 02:37:03;;;;;;;0.73;0.73;;;;;;;-146.26;100.00;59860.63;5071164;28;20714;-74
2024/03/15 02:39:29;;;;;;;0.45;0.45;;;;;;;-146.26;100.00;59860.63;5069479;28;20040;-74
2024/03/15 02:41:56;;;;;;;0.50;0.50;;;;;;;-146.26;100.00;59860.63;5069103;28;20047;-73
2024/03/15 02:44:22;;;;;;;0.75;0.75;;;;;;;-146.26;100.00;59860.63;5075095;28;20480;-79
2024/03/15 02:46:48;;;;;;;3.13;3.03;;;;;;;-146.26;100.00;59860.63;5072248;28;20048;-74
2024/03/15 02:49:14;;;;;;;1.67;1.58;;;;;;;-146.26;100.00;59860.63;5068432;28;20044;-73
2024/03/15 02:51:41;;;;;;;6.82;6.53;;;;;;;-146.26;100.00;59860.63;5069999;28;20091;-73
2024/03/15 02:54:08;;;;;;;3.65;3.45;;;;;;;-146.26;100.00;59860.63;5068957;28;20032;-75
2024/03/15 02:56:35;;;;;;;2.58;2.47;;;;;;;-146.26;100.00;59860.63;5066117;28;20047;-74
2024/03/15 02:59:01;;;;;;;2.53;2.42;;;;;;;-146.26;100.00;59860.63;5074898;28;20492;-75
2024/03/15 03:01:26;;;;;;;2.05;1.88;;;;;;;-146.26;100.00;59860.63;5069255;28;20499;-76
2024/03/15 03:03:52;;;;;;;5.47;4.20;;;;;;;-146.26;100.00;59860.63;5084161;28;20036;-76
2024/03/15 03:06:18;;;;;;;0.50;0.50;;;;;;;-146.26;100.00;59860.63;5072782;28;20396;-75
2024/03/15 03:08:43;;;;;;;1.77;1.67;;;;;;;-146.26;100.00;59860.63;5071604;28;20465;-74
2024/03/15 03:11:11;;;;;;;1.40;1.33;;;;;;;-146.26;100.00;59860.63;5074962;28;20151;-74
2024/03/15 03:13:37;;;;;;;1.13;0.70;;;;;;;-146.26;100.00;59860.63;5069666;28;20016;-75
2024/03/15 03:16:07;;;;;;;1.38;1.27;;;;;;;-146.26;100.00;59860.63;5071470;28;20040;-74
2024/03/15 03:18:32;;;;;;;2.58;2.47;;;;;;;-146.26;100.00;59860.63;5066538;28;20088;-74
2024/03/15 03:20:59;;;;;;;1.00;1.00;;;;;;;-146.26;100.00;59860.63;5083588;28;20048;-74
2024/03/15 03:23:26;;;;;;;0.82;0.82;;;;;;;-146.26;100.00;59860.63;5062431;28;20048;-74
2024/03/15 03:25:51;;;;;;;2.40;2.20;;;;;;;-146.26;100.00;59860.63;5058508;28;20044;-74
2024/03/15 03:28:17;;;;;;;1.85;1.77;;;;;;;-146.26;100.00;59860.63;5084549;28;20036;-74
2024/03/15 03:30:46;;;;;;;6.32;5.20;;;;;;;-146.26;100.00;59860.63;5059207;28;20515;-73
2024/03/15 03:33:12;;;;;;;2.83;2.72;;;;;;;-146.26;100.00;59860.63;5087859;28;20074;-75
2024/03/15 03:35:39;;;;;;;11.05;6.63;;;;;;;-146.26;100.00;59860.63;5079303;28;20094;-75
2024/03/15 03:38:06;;;;;;;0.68;0.68;;;;;;;-146.26;100.00;59860.63;5052155;28;20056;-73
2024/03/15 03:40:33;;;;;;;2.83;2.72;;;;;;;-146.26;100.00;59860.63;5082531;28;20040;-75
2024/03/15 03:43:01;;;;;;;13.57;10.38;;;;;;;-146.26;100.00;59860.63;5080467;28;20048;-76
2024/03/15 03:45:27;;;;;;;0.68;0.68;;;;;;;-146.26;100.00;59860.63;5071405;28;20499;-74
2024/03/15 03:47:55;;;;;;;1.55;1.45;;;;;;;-146.26;100.00;59860.63;5074126;28;20075;-74
2024/03/15 03:50:21;;;;;;;2.83;2.67;;;;;;;-146.26;100.00;59860.63;5077188;28;20048;-74
2024/03/15 03:52:48;;;;;;;6.05;5.60;;;;;;;-146.26;100.00;59860.63;5071152;28;20381;-77
2024/03/15 03:55:15;;;;;;;0.40;0.40;;;;;;;-146.26;100.00;59860.63;5068061;28;20036;-76
2024/03/15 03:57:41;;;;;;;3.65;3.47;;;;;;;-146.26;100.00;59860.63;5075786;28;20051;-75
2024/03/15 04:00:16;;;;;;;1.92;1.83;;;;;;;-146.26;100.00;59860.63;5070564;28;20101;-76
2024/03/15 04:02:45;;;;;;;11.70;10.65;;;;;;;-146.26;100.00;59860.63;5073344;28;20044;-75
2024/03/15 04:05:15;;;;;;;1.42;0.80;;;;;;;-146.26;100.00;59860.63;5084835;28;20048;-75
2024/03/15 04:07:42;;;;;;;1.88;1.55;;;;;;;-146.26;100.00;59860.63;5075281;28;20677;-75
2024/03/15 04:10:08;;;;;;;0.65;0.65;;;;;;;-146.26;100.00;59860.63;5069013;28;20036;-74
2024/03/15 04:12:35;;;;;;;0.73;0.73;;;;;;;-146.26;100.00;59860.63;5070741;28;20056;-75
2024/03/15 04:15:02;;;;;;;0.80;0.80;;;;;;;-146.26;100.00;59860.63;5072826;28;20575;-74
2024/03/15 04:17:27;;;;;;;1.58;1.48;;;;;;;-146.26;100.00;59860.63;5074545;28;20046;-78
2024/03/15 04:19:53;;;;;;;5.60;5.35;;;;;;;-146.26;100.00;59860.63;5071234;28;20384;-74
2024/03/15 04:22:21;;;;;;;0.32;0.32;;;;;;;-146.26;100.00;59860.63;5071232;28;20062;-74
2024/03/15 04:24:49;;;;;;;0.85;0.85;;;;;;;-146.26;100.00;59860.63;5061906;28;20073;-75
2024/03/15 04:27:18;;;;;;;0.30;0.30;;;;;;;-146.26;100.00;59860.63;5072683;28;20052;-74
2024/03/15 04:29:44;;;;;;;2.45;1.45;;;;;;;-146.26;100.00;59860.63;5061190;28;20091;-75
2024/03/15 04:32:10;;;;;;;0.95;0.95;;;;;;;-146.26;100.00;59860.63;5081401;28;20040;-74
2024/03/15 04:34:37;;;;;;;3.78;3.53;;;;;;;-146.26;100.00;59860.63;5082011;28;20119;-73
2024/03/15 04:37:06;;;;;;;0.45;0.45;;;;;;;-146.26;100.00;59860.63;5076671;28;20044;-74
2024/03/15 04:39:32;;;;;;;2.30;2.20;;;;;;;-146.26;100.00;59860.63;5076776;28;20500;-75
2024/03/15 04:41:58;;;;;;;2.95;2.85;;;;;;;-146.26;100.00;59860.63;5060208;28;20059;-74
2024/03/15 04:44:23;;;;;;;1.48;1.38;;;;;;;-146.26;100.00;59860.63;5085897;28;20048;-74
2024/03/15 04:46:50;;;;;;;1.35;1.27;;;;;;;-146.26;100.00;59860.63;5068911;28;20467;-73
2024/03/15 04:49:17;;;;;;;0.82;0.82;;;;;;;-146.26;100.00;59860.63;5079053;28;20058;-76
2024/03/15 04:51:43;;;;;;;0.50;0.50;;;;;;;-146.26;100.00;59860.63;5064284;28;20044;-74
2024/03/15 04:54:09;;;;;;;0.82;0.65;;;;;;;-146.26;100.00;59860.63;5078174;28;20064;-72
2024/03/15 04:56:34;;;;;;;1.45;1.38;;;;;;;-146.26;100.00;59860.63;5074393;28;20179;-73
2024/03/15 04:59:00;;;;;;;0.77;0.50;;;;;;;-146.26;100.00;59860.63;5073894;28;20028;-73
2024/03/15 05:01:26;;;;;;;4.88;4.57;;;;;;;-146.26;100.00;59860.63;5078715;28;20040;-74
2024/03/15 05:03:52;;;;;;;2.63;2.42;;;;;;;-146.26;100.00;59860.63;5086719;28;20051;-74
2024/03/15 05:06:18;;;;;;;0.43;0.43;;;;;;;-146.26;100.00;59860.63;5073241;28;20415;-74
2024/03/15 05:08:43;;;;;;;3.78;3.45;;;;;;;-146.26;100.00;59860.63;5074336;28;20067;-74
2024/03/15 05:11:09;;;;;;;0.30;0.30;;;;;;;-146.26;100.00;59860.63;5077124;28;20596;-74
2024/03/15 05:13:35;;;;;;;3.47;3.30;;;;;;;-146.26;100.00;59860.63;5081477;28;20028;-73
2024/03/15 05:16:02;;;;;;;0.60;0.60;;;;;;;-146.26;100.00;59860.63;5083800;28;20142;-73
2024/03/15 05:18:29;;;;;;;1.00;1.00;;;;;;;-146.26;100.00;59860.63;5084343;28;20064;-75
2024/03/15 05:20:55;;;;;;;2.60;2.40;;;;;;;-146.26;100.00;59860.63;5083325;28;20047;-75
2024/03/15 05:23:21;;;;;;;1.83;1.73;;;;;;;-146.26;100.00;59860.63;5077253;28;20110;-77
2024/03/15 05:25:46;;;;;;;0.82;0.82;;;;;;;-146.26;100.00;59860.63;5077973;28;20371;-76
2024/03/15 05:28:14;;;;;;;1.20;1.20;;;;;;;-146.26;100.00;59860.63;5071349;28;20540;-75
2024/03/15 05:30:39;;;;;;;0.50;0.50;;;;;;;-146.26;100.00;59860.63;5076257;28;20052;-73
2024/03/15 05:33:05;;;;;;;2.92;2.83;;;;;;;-146.26;100.00;59860.63;5074850;28;20546;-75
2024/03/15 05:35:31;;;;;;;3.05;2.95;;;;;;;-146.26;100.00;59860.63;5052682;28;20098;-75
2024/03/15 05:37:56;;;;;;;0.60;0.60;;;;;;;-146.26;100.00;59860.63;5080026;28;20524;-76
2024/03/15 05:40:23;;;;;;;16.17;14.90;;;;;;;-146.26;100.00;59860.63;5076151;28;20077;-75
2024/03/15 05:42:49;;;;;;;0.40;0.40;;;;;;;-146.26;100.00;59860.63;5084646;28;20116;-74
2024/03/15 05:45:16;;;;;;;0.68;0.68;;;;;;;-146.26;100.00;59860.63;5073495;28;20715;-75
2024/03/15 05:47:43;;;;;;;2.85;2.65;;;;;;;-146.26;100.00;59860.63;5075337;28;20036;-75
2024/03/15 05:50:09;;;;;;;0.40;0.40;;;;;;;-146.26;100.00;59860.63;5066958;28;20483;-74
2024/03/15 05:52:35;;;;;;;0.43;0.43;;;;;;;-146.26;100.00;59860.63;5087231;28;20113;-74
2024/03/15 05:55:03;;;;;;;1.27;1.15;;;;;;;-146.26;100.00;59860.63;5077370;28;20421;-74
2024/03/15 05:57:29;;;;;;;13.68;12.80;;;;;;;-146.26;100.00;59860.63;5088092;28;20044;-76
2024/03/15 05:59:55;;;;;;;3.33;3.17;;;;;;;-146.26;100.00;59860.63;5075365;28;20478;-75
2024/03/15 06:02:21;;;;;;;6.10;5.78;;;;;;;-146.26;100.00;59860.63;5071593;28;20464;-77
2024/03/15 06:04:47;;;;;;;8.52;8.07;;;;;;;-146.26;100.00;59860.63;5082768;28;20104;-75
2024/03/15 06:07:12;;;;;;;2.20;2.10;;;;;;;-146.26;100.00;59860.63;5088901;28;20039;-74
2024/03/15 06:09:38;;;;;;;4.07;3.83;;;;;;;-146.26;100.00;59860.63;5085806;28;20059;-75
2024/03/15 06:12:05;;;;;;;3.05;2.95;;;;;;;-146.26;100.00;59860.63;5077653;28;20044;-74
2024/03/15 06:14:31;;;;;;;1.35;1.25;;;;;;;-146.26;100.00;59860.63;5082857;28;20043;-76
2024/03/15 06:16:57;;;;;;;3.30;2.47;;;;;;;-146.26;100.00;59860.63;5081664;28;20495;-79
2024/03/15 06:19:23;;;;;;;1.33;1.25;;;;;;;-146.26;100.00;59860.63;5080864;28;20110;-74
2024/03/15 06:21:49;;;;;;;1.17;1.08;;;;;;;-146.26;100.00;59860.63;5083100;28;20480;-76
2024/03/15 06:24:19;;;;;;;3.08;2.92;;;;;;;-146.26;100.00;59860.63;5085640;28;20058;-77
2024/03/15 06:26:46;;;;;;;4.47;4.28;;;;;;;-146.26;100.00;59860.63;5083087;28;20068;-76
2024/03/15 06:29:16;;;;;;;3.38;3.22;;;;;;;-146.26;100.00;59860.63;5078960;28;20725;-73
2024/03/15 06:31:43;;;;;;;3.03;2.92;;;;;;;-146.26;100.00;59860.63;5086042;28;20028;-75
2024/03/15 06:34:10;;;;;;;1.05;1.05;;;;;;;-146.26;100.00;59860.63;5087566;28;21478;-75
2024/03/15 06:36:43;;;;;;;3.00;2.90;;;;;;;-146.26;100.00;59860.63;5084759;28;20040;-76
2024/03/15 06:41:55;;;;;;;2.22;2.08;;;;;;;-146.26;100.00;59860.63;5065702;28;20056;-75
2024/03/15 06:44:25;;;;;;;0.55;0.50;;;;;;;-146.26;100.00;59860.63;5077810;28;20047;-76
2024/03/15 06:52:37;;;;;;;6.75;6.07;;;;;;;-146.26;100.00;59860.63;5076097;28;20430;-74
2024/03/15 06:55:04;;;;;;;2.38;2.28;;;;;;;-146.26;100.00;59860.63;5073306;28;20052;-74
2024/03/15 06:57:32;;;;;;;1.65;1.55;;;;;;;-146.26;100.00;59860.63;5083375;28;20043;-75
2024/03/15 06:59:58;;;;;;;0.55;0.55;;;;;;;-146.26;100.00;59860.63;5062897;28;20483;-74
2024/03/15 07:02:24;;;;;;;1.00;0.95;;;;;;;-146.26;100.00;59860.63;5095267;28;20097;-77
2024/03/15 07:04:50;;;;;;;1.45;1.35;;;;;;;-146.26;100.00;59860.63;5076698;28;20036;-76
2024/03/15 07:07:22;;;;;;;1.17;1.10;;;;;;;-146.26;100.00;59860.63;5071756;28;20039;-74
2024/03/15 07:09:48;;;;;;;1.40;1.33;;;;;;;-146.26;100.00;59860.63;5069061;28;21143;-75
2024/03/15 07:12:16;;;;;;;0.68;0.68;;;;;;;-146.26;100.00;59860.63;5053102;28;20076;-75
2024/03/15 07:14:43;;;;;;;2.50;2.38;;;;;;;-146.26;100.00;59860.63;5070399;28;20164;-75
2024/03/15 07:17:09;;;;;;;0.47;0.47;;;;;;;-146.26;100.00;59860.63;5052868;28;20048;-75
2024/03/15 07:19:37;;;;;;;2.30;2.20;;;;;;;-146.26;100.00;59860.63;5072398;28;20063;-75
2024/03/15 07:22:04;;;;;;;1.20;1.10;;;;;;;-146.26;100.00;59860.63;5052783;28;20070;-74
2024/03/15 07:24:30;;;;;;;11.80;10.45;;;;;;;-146.26;100.00;59860.63;5069126;28;20044;-75
2024/03/15 07:26:56;;;;;;;0.82;0.77;;;;;;;-146.26;100.00;59860.63;5070944;28;20113;-74
2024/03/15 07:29:21;;;;;;;2.05;1.95;;;;;;;-146.26;100.00;59860.63;5072460;28;20048;-74
2024/03/15 07:31:49;;;;;;;13.07;11.13;;;;;;;-146.26;100.00;59860.63;5069946;28;21084;-74
2024/03/15 07:34:14;;;;;;;0.82;0.82;;;;;;;-146.26;100.00;59860.63;5071558;28;20040;-75
2024/03/15 07:36:40;;;;;;;4.38;4.18;;;;;;;-146.26;100.00;59860.63;5070778;28;20158;-73
2024/03/15 07:39:09;;;;;;;0.73;0.73;;;;;;;-146.26;100.00;59860.63;5073255;28;20052;-79
2024/03/15 07:41:34;;;;;;;0.40;0.40;;;;;;;-146.26;100.00;59860.63;5072587;28;20162;-83
2024/03/15 07:44:04;;;;;;;9.10;8.20;;;;;;;-146.26;100.00;59860.63;5068016;28;20112;-77
2024/03/15 07:46:30;;;;;;;0.43;0.43;;;;;;;-146.26;100.00;59860.63;5070154;28;20118;-79
2024/03/15 07:48:57;;;;;;;0.90;0.90;;;;;;;-146.26;100.00;59860.63;5071586;28;20060;-78
2024/03/15 07:51:24;;;;;;;6.22;3.50;;;;;;;-146.26;100.00;59860.63;5072323;28;20059;-77
2024/03/15 07:53:50;;;;;;;0.85;0.85;;;;;;;-146.26;100.00;59860.63;5068919;28;20547;-78
2024/03/15 07:56:16;;;;;;;8.00;7.43;;;;;;;-146.26;100.00;59860.63;5070261;28;20056;-78
2024/03/15 07:58:42;;;;;;;1.92;1.83;;;;;;;-146.26;100.00;59860.63;5071234;28;20040;-76
2024/03/15 08:01:08;;;;;;;0.85;0.85;;;;;;;-146.26;100.00;59860.63;5071042;28;20538;-77
2024/03/15 08:03:37;;;;;;;0.77;0.77;;;;;;;-146.26;100.00;59860.63;5066802;28;20079;-77
2024/03/15 08:06:05;;;;;;;1.77;1.67;;;;;;;-146.26;100.00;59860.63;5069652;28;20516;-77
2024/03/15 08:08:34;;;;;;;11.35;9.85;;;;;;;-146.26;100.00;59860.63;5066414;28;20058;-76
2024/03/15 08:11:00;;;;;;;1.25;1.13;;;;;;;-146.26;100.00;59860.63;5067458;28;20415;-75
2024/03/15 08:13:27;;;;;;;3.45;3.25;;;;;;;-146.26;100.00;59860.63;5069579;28;20036;-76
2024/03/15 08:15:59;;;;;;;6.60;6.22;;;;;;;-146.26;100.00;59860.63;5070835;28;20663;-77
2024/03/15 08:18:29;;;;;;;2.00;1.90;;;;;;;-146.26;100.00;59860.63;5052815;28;20526;-77
2024/03/15 08:20:55;;;;;;;2.28;2.15;;;;;;;-146.26;100.00;59860.63;5071690;28;20048;-77
2024/03/15 08:23:23;;;;;;;8.55;7.97;;;;;;;-146.26;100.00;59860.63;5066973;28;20055;-76
2024/03/15 08:25:49;;;;;;;2.10;1.90;;;;;;;-146.26;100.00;59860.63;5071655;28;20222;-76
2024/03/15 08:28:15;;;;;;;1.30;1.20;;;;;;;-146.26;100.00;59860.63;5070280;28;20046;-76
2024/03/15 08:30:43;;;;;;;1.05;1.00;;;;;;;-146.26;100.00;59860.63;5048275;28;20099;-77
2024/03/15 08:33:10;;;;;;;2.60;2.47;;;;;;;-146.26;100.00;59860.63;5069850;28;20087;-76
2024/03/15 08:35:35;;;;;;;3.22;3.03;;;;;;;-146.26;100.00;59860.63;5070552;28;20052;-76
2024/03/15 08:38:01;;;;;;;1.50;1.40;;;;;;;-146.26;100.00;59860.63;5070505;28;20063;-76
2024/03/15 08:40:27;;;;;;;12.73;8.30;;;;;;;-146.26;100.00;59860.63;5051670;28;20119;-78
2024/03/15 08:42:54;;;;;;;0.43;0.43;;;;;;;-146.26;100.00;59860.63;5070504;28;20127;-77
2024/03/15 08:45:21;;;;;;;0.77;0.77;;;;;;;-146.26;100.00;59860.63;5070981;28;20124;-77
2024/03/15 08:47:47;;;;;;;6.43;6.10;;;;;;;-146.26;100.00;59860.63;5065690;28;20058;-79
2024/03/15 08:50:14;;;;;;;0.73;0.73;;;;;;;-146.26;100.00;59860.63;5070412;28;20044;-76
2024/03/15 08:52:40;;;;;;;4.22;4.00;;;;;;;-146.26;100.00;59860.63;5070736;28;20554;-76
2024/03/15 08:55:09;;;;;;;3.15;2.92;;;;;;;-146.26;100.00;59860.63;5068910;28;20083;-77
2024/03/15 08:57:38;;;;;;;5.78;5.35;;;;;;;-146.26;100.00;59860.63;5069188;28;20044;-75
2024/03/15 09:00:16;;;;;;;1.65;1.55;;;;;;;-146.26;100.00;59860.63;5050839;28;20048;-77
2024/03/15 09:02:41;;;;;;;1.58;1.48;;;;;;;-146.26;100.00;59860.63;5070547;28;20063;-76
2024/03/15 09:05:10;;;;;;;1.27;1.23;;;;;;;-146.26;100.00;59860.63;5053339;28;20052;-76
2024/03/15 09:07:37;;;;;;;3.33;3.03;;;;;;;-146.26;100.00;59860.63;5071908;28;20209;-75
2024/03/15 09:10:13;;;;;;;4.45;4.13;;;;;;;-146.26;100.00;59860.63;5067185;28;20061;-75
2024/03/15 09:12:40;;;;;;;1.73;1.63;;;;;;;-146.26;100.00;59860.63;5069494;28;20088;-76
2024/03/15 09:15:08;;;;;;;7.43;6.88;;;;;;;-146.26;100.00;59860.63;5071288;28;20056;-76
2024/03/15 09:17:33;;;;;;;1.98;1.88;;;;;;;-146.26;100.00;59860.63;5074623;28;20048;-76
2024/03/15 09:20:08;;;;;;;0.63;0.63;;;;;;;-146.26;100.00;59860.63;5073424;28;20559;-75
2024/03/15 09:22:34;;;;;;;0.93;0.90;;;;;;;-146.26;100.00;59860.63;5071027;28;20070;-77
2024/03/15 09:25:00;;;;;;;0.55;0.55;;;;;;;-146.26;100.00;59860.63;5051497;28;20052;-77
2024/03/15 09:27:27;;;;;;;2.00;1.90;;;;;;;-146.26;100.00;59860.63;5073725;28;20047;-78
2024/03/15 09:29:55;;;;;;;4.13;3.90;;;;;;;-146.26;100.00;59860.63;5074764;28;20140;-75
2024/03/15 09:32:21;;;;;;;1.20;1.10;;;;;;;-146.26;100.00;59860.63;5071537;28;20137;-75
2024/03/15 09:34:49;;;;;;;1.85;1.75;;;;;;;-146.26;100.00;59860.63;5073980;28;20598;-75
2024/03/15 09:37:14;;;;;;;0.75;0.75;;;;;;;-146.26;100.00;59860.63;5074887;28;20034;-75
2024/03/15 09:39:43;;;;;;;0.50;0.50;;;;;;;-146.26;100.00;59860.63;5061215;28;20052;-75
2024/03/15 09:42:20;;;;;;;0.90;0.77;;;;;;;-146.26;100.00;59860.63;5073785;28;20052;-76
2024/03/15 09:44:48;;;;;;;0.80;0.70;;;;;;;-146.26;100.00;59860.63;5073094;28;20058;-76
2024/03/15 09:47:14;;;;;;;1.70;1.60;;;;;;;-146.26;100.00;59860.63;5073778;28;20056;-74
2024/03/15 09:49:44;;;;;;;3.85;3.60;;;;;;;-146.26;100.00;59860.63;5073260;28;20047;-76
2024/03/15 09:52:11;;;;;;;1.70;1.63;;;;;;;-146.26;100.00;59860.63;5072892;28;21308;-74
2024/03/15 09:54:36;;;;;;;4.78;4.43;;;;;;;-146.26;100.00;59860.63;5070888;28;20044;-75
2024/03/15 09:57:06;;;;;;;3.17;3.05;;;;;;;-146.26;100.00;59860.63;5071384;28;20055;-77
2024/03/15 09:59:34;;;;;;;0.40;0.40;;;;;;;-146.26;100.00;59860.63;5071047;28;20062;-74
2024/03/15 10:02:12;;;;;;;1.30;1.20;;;;;;;-146.26;100.00;59860.63;5072493;28;20154;-74
2024/03/15 10:04:37;;;;;;;2.60;2.50;;;;;;;-146.26;100.00;59860.63;5071547;28;20043;-76
2024/03/15 10:07:05;;;;;;;3.53;3.08;;;;;;;-146.26;100.00;59860.63;5071992;28;20056;-76
2024/03/15 10:09:31;;;;;;;10.02;9.48;;;;;;;-146.26;100.00;59860.63;5068522;28;20121;-77
2024/03/15 10:11:57;;;;;;;1.45;0.90;;;;;;;-146.26;100.00;59860.63;5064408;28;20203;-77
2024/03/15 10:14:30;;;;;;;1.40;1.30;;;;;;;-146.26;100.00;59860.63;5072393;28;20052;-78
2024/03/15 10:16:55;;;;;;;0.60;0.60;;;;;;;-146.26;100.00;59860.63;5072336;28;20737;-77
2024/03/15 10:19:23;;;;;;;1.65;1.55;;;;;;;-146.26;100.00;59860.63;5074554;28;20032;-77
2024/03/15 10:21:49;;;;;;;0.43;0.43;;;;;;;-146.26;100.00;59860.63;5074005;28;20067;-77
2024/03/15 10:24:16;;;;;;;0.52;0.52;;;;;;;-146.26;100.00;59860.63;5070268;28;20517;-77
2024/03/15 10:26:41;;;;;;;0.80;0.80;;;;;;;-146.26;100.00;59860.63;5073477;28;20048;-77
2024/03/15 10:29:09;;;;;;;0.50;0.50;;;;;;;-146.26;100.00;59860.63;5073467;28;20079;-76
2024/03/15 10:31:36;;;;;;;2.90;2.75;;;;;;;-146.26;100.00;59860.63;5072550;28;20044;-75
2024/03/15 10:34:04;;;;;;;2.95;2.75;;;;;;;-146.26;100.00;59860.63;5071680;28;20052;-78
2024/03/15 10:36:32;;;;;;;0.50;0.50;;;;;;;-146.26;100.00;59860.63;5071371;28;20063;-76
2024/03/15 10:38:59;;;;;;;1.45;1.35;;;;;;;-146.26;100.00;59860.63;5072599;28;20101;-82
2024/03/15 10:41:24;;;;;;;2.65;2.47;;;;;;;-146.26;100.00;59860.63;5054547;28;20075;-81
2024/03/15 10:43:52;;;;;;;0.60;0.60;;;;;;;-146.26;100.00;59860.63;5070683;28;20043;-81
2024/03/15 10:46:18;;;;;;;0.40;0.40;;;;;;;-146.26;100.00;59860.63;5074977;28;20036;-82
2024/03/15 10:48:43;;;;;;;27.20;17.95;;;;;;;-146.26;100.00;59860.63;5071411;28;20066;-82
2024/03/15 10:51:11;;;;;;;1.60;1.50;;;;;;;-146.26;100.00;59860.63;5071746;28;20044;-80
2024/03/15 10:53:38;;;;;;;1.38;1.38;;;;;;;-146.26;100.00;59860.63;5070829;28;20071;-80
2024/03/15 10:56:04;;;;;;;1.75;1.65;;;;;;;-146.26;100.00;59860.63;5034122;28;20640;-75
2024/03/15 10:58:29;;;;;;;1.42;1.33;;;;;;;-146.26;100.00;59860.63;5072068;28;20778;-75
2024/03/15 11:00:55;;;;;;;2.88;2.67;;;;;;;-146.26;100.00;59860.63;5051686;28;20043;-77
2024/03/15 11:03:28;;;;;;;0.30;0.30;;;;;;;-146.26;100.00;59860.63;5071214;28;20051;-75
2024/03/15 11:05:55;;;;;;;0.37;0.37;;;;;;;-146.26;100.00;59860.63;5054041;28;20466;-74
2024/03/15 11:08:21;;;;;;;1.13;1.02;;;;;;;-146.26;100.00;59860.63;5053213;28;20444;-76
2024/03/15 11:11:04;;;;;;;1.95;1.85;;;;;;;-146.26;100.00;59860.63;5069485;28;20140;-75
2024/03/15 11:13:36;;;;;;;12.45;6.43;;;;;;;-146.26;100.00;59860.63;5070244;28;20112;-75
2024/03/15 11:16:25;;;;;;;0.55;0.55;;;;;;;-146.26;100.00;59860.63;5072451;28;20052;-77